Time;durP1;ratioP1;P1;durP2;ratioP2;P2;SDS_P1;SDS_P2;PMS_P1;PMS_P2;Temp;Humidity;BMP_temperature;BMP_pressure;BME280_temperature;BME280_humidity;BME280_pressure;Samples;Min_cycle;Max_cycle;Signal;HPM_P1;HPM_P2
2021/09/07 00:00:54;;;;;;;10.65;7.03;;;;;;;20.56;62.81;99261.00;5082605;28;20097;-60
2021/09/07 00:03:19;;;;;;;9.25;5.93;;;;;;;20.61;62.72;99265.72;5103351;27;20802;-59
2021/09/07 00:05:44;;;;;;;10.68;5.80;;;;;;;20.37;62.54;99225.53;5102684;27;20114;-58
2021/09/07 00:08:10;;;;;;;8.70;6.20;;;;;;;20.60;63.09;99261.44;5081945;28;20032;-60
2021/09/07 00:10:35;;;;;;;8.77;5.95;;;;;;;20.43;64.73;99259.09;5082886;28;20513;-59
2021/09/07 00:13:01;;;;;;;8.50;6.43;;;;;;;20.49;65.11;99265.44;5103456;28;20723;-60
2021/09/07 00:15:26;;;;;;;14.05;6.80;;;;;;;20.56;64.95;99258.38;5097445;27;20052;-60
2021/09/07 00:17:52;;;;;;;8.40;6.03;;;;;;;20.55;64.75;99260.19;5098757;27;20038;-59
2021/09/07 00:20:17;;;;;;;8.57;6.10;;;;;;;20.57;65.02;99259.16;5106121;27;20409;-60
2021/09/07 00:22:44;;;;;;;8.88;5.80;;;;;;;20.31;64.59;99213.91;5101044;28;20035;-60
2021/09/07 00:25:10;;;;;;;9.82;6.20;;;;;;;20.60;64.21;99250.88;5082367;28;20397;-59
2021/09/07 00:27:36;;;;;;;8.00;5.78;;;;;;;20.63;63.99;99242.59;5102538;28;20055;-60
2021/09/07 00:30:02;;;;;;;10.25;6.72;;;;;;;20.69;64.41;99253.19;5103355;28;20054;-60
2021/09/07 00:32:27;;;;;;;8.13;6.00;;;;;;;20.70;64.20;99251.38;5097796;27;20055;-60
2021/09/07 00:34:53;;;;;;;9.38;6.63;;;;;;;20.71;64.40;99245.06;5103255;27;20538;-59
2021/09/07 00:37:18;;;;;;;9.43;6.20;;;;;;;20.60;64.38;99241.09;5108306;27;20092;-60
2021/09/07 00:39:44;;;;;;;9.13;5.85;;;;;;;20.67;63.94;99247.28;5104912;28;20023;-60
2021/09/07 00:42:09;;;;;;;10.73;5.80;;;;;;;20.70;63.94;99248.72;5101566;28;20103;-60
2021/09/07 00:44:34;;;;;;;9.48;5.75;;;;;;;20.40;64.08;99211.94;5086522;28;20115;-60
2021/09/07 00:47:02;;;;;;;8.95;6.15;;;;;;;20.61;65.28;99241.94;5106965;27;20413;-60
2021/09/07 00:49:30;;;;;;;8.38;5.68;;;;;;;20.60;65.15;99238.47;5104649;27;20057;-60
2021/09/07 00:51:56;;;;;;;8.52;6.00;;;;;;;20.64;65.51;99238.94;5098040;27;20042;-61
2021/09/07 00:54:26;;;;;;;9.60;6.00;;;;;;;20.61;65.66;99241.94;5080487;28;20055;-60
2021/09/07 00:56:53;;;;;;;9.25;6.55;;;;;;;20.42;66.52;99223.13;5101677;27;20027;-60
2021/09/07 00:59:19;;;;;;;10.20;6.75;;;;;;;20.51;66.63;99229.06;5105772;27;20138;-59
2021/09/07 01:01:45;;;;;;;8.93;7.10;;;;;;;20.59;66.48;99230.72;5103200;28;20027;-59
2021/09/07 01:04:10;;;;;;;10.25;6.60;;;;;;;20.65;66.20;99236.09;5084946;28;20054;-60
2021/09/07 01:06:36;;;;;;;8.85;6.40;;;;;;;20.69;66.31;99242.63;5100976;27;20027;-59
2021/09/07 01:09:01;;;;;;;9.38;6.88;;;;;;;20.74;66.07;99244.69;5094163;28;20027;-61
2021/09/07 01:11:27;;;;;;;9.13;6.80;;;;;;;20.65;66.57;99236.09;5103509;28;20392;-60
2021/09/07 01:13:52;;;;;;;9.90;6.60;;;;;;;20.49;68.41;99250.38;5101545;27;20789;-60
2021/09/07 01:16:18;;;;;;;8.65;6.40;;;;;;;20.51;67.21;99245.72;5099443;28;20063;-59
2021/09/07 01:18:43;;;;;;;10.95;6.68;;;;;;;20.21;67.88;99202.06;5088255;28;20019;-60
2021/09/07 01:21:15;;;;;;;9.18;6.47;;;;;;;20.45;68.06;99243.88;5108214;27;20039;-60
2021/09/07 01:23:43;;;;;;;8.88;6.82;;;;;;;20.49;67.73;99246.94;5095093;28;20108;-61
2021/09/07 01:26:10;;;;;;;10.25;6.70;;;;;;;20.33;67.81;99204.00;5088641;28;20038;-59
2021/09/07 01:28:35;;;;;;;8.73;6.50;;;;;;;20.48;68.04;99232.09;5104758;27;20108;-59
2021/09/07 01:31:04;;;;;;;8.98;6.75;;;;;;;20.42;67.86;99233.69;5101707;27;20074;-59
2021/09/07 01:33:30;;;;;;;8.60;6.73;;;;;;;20.53;67.58;99241.09;5102334;28;20053;-60
2021/09/07 01:35:56;;;;;;;8.55;6.95;;;;;;;20.42;68.00;99238.16;5102463;28;20119;-59
2021/09/07 01:38:22;;;;;;;10.10;6.40;;;;;;;20.44;67.96;99236.13;5101961;28;20031;-61
2021/09/07 01:40:47;;;;;;;9.38;6.65;;;;;;;20.41;68.25;99237.34;5094378;27;20031;-60
2021/09/07 01:43:14;;;;;;;9.32;7.10;;;;;;;20.41;67.88;99233.88;5099564;27;20036;-59
2021/09/07 01:45:39;;;;;;;10.98;6.30;;;;;;;20.45;67.75;99235.94;5099300;28;20084;-59
2021/09/07 01:48:05;;;;;;;9.50;6.43;;;;;;;20.55;66.93;99230.31;5099659;28;21159;-61
2021/09/07 01:50:30;;;;;;;8.60;6.53;;;;;;;20.48;66.88;99232.09;5096748;27;20042;-62
2021/09/07 01:52:55;;;;;;;10.57;6.60;;;;;;;20.54;66.49;99231.31;5104995;27;20015;-60
2021/09/07 01:55:21;;;;;;;8.88;6.43;;;;;;;20.39;66.84;99196.28;5102442;27;20063;-60
2021/09/07 01:57:47;;;;;;;9.02;6.75;;;;;;;20.61;67.32;99232.22;5081789;28;20023;-59
2021/09/07 02:00:13;;;;;;;10.23;6.82;;;;;;;20.60;67.18;99225.25;5103214;27;20051;-61
2021/09/07 02:02:39;;;;;;;7.90;6.60;;;;;;;20.53;67.79;99221.75;5097633;28;20521;-59
2021/09/07 02:05:05;;;;;;;8.70;6.93;;;;;;;20.52;67.99;99226.22;5084250;28;20038;-60
2021/09/07 02:07:30;;;;;;;9.55;6.63;;;;;;;20.25;68.33;99183.00;5090346;28;20073;-59
2021/09/07 02:09:55;;;;;;;9.32;6.80;;;;;;;20.48;68.14;99217.06;5103034;27;20120;-61
2021/09/07 02:12:21;;;;;;;8.95;6.82;;;;;;;20.45;67.65;99198.97;5092786;28;20028;-60
2021/09/07 02:14:46;;;;;;;8.93;6.82;;;;;;;20.26;68.49;99191.72;5096720;27;20031;-60
2021/09/07 02:17:11;;;;;;;9.57;6.88;;;;;;;20.29;68.51;99200.06;5104670;27;20660;-59
2021/09/07 02:19:37;;;;;;;9.48;7.00;;;;;;;20.37;68.98;99196.50;5100305;28;20038;-60
2021/09/07 02:22:03;;;;;;;9.45;7.00;;;;;;;20.27;69.01;99199.47;5096388;28;20369;-61
2021/09/07 02:24:28;;;;;;;9.38;6.63;;;;;;;20.43;68.04;99193.06;5082639;28;20201;-60
2021/09/07 02:26:54;;;;;;;9.85;6.70;;;;;;;20.36;68.49;99200.94;5097950;28;20034;-61
2021/09/07 02:29:19;;;;;;;10.32;6.70;;;;;;;20.13;67.83;99158.97;5098498;28;20019;-61
2021/09/07 02:31:45;;;;;;;11.02;6.93;;;;;;;20.32;66.77;99189.13;5102804;28;20032;-59
2021/09/07 02:34:10;;;;;;;10.30;6.78;;;;;;;20.46;67.01;99199.78;5105844;28;20024;-59
2021/09/07 02:36:37;;;;;;;9.18;6.90;;;;;;;20.34;66.83;99167.81;5100053;28;20042;-59
2021/09/07 02:39:03;;;;;;;10.27;7.07;;;;;;;20.24;68.31;99169.97;5101800;28;20180;-60
2021/09/07 02:41:28;;;;;;;8.13;6.65;;;;;;;20.51;67.74;99195.53;5101352;28;20502;-59
2021/09/07 02:43:53;;;;;;;9.15;7.05;;;;;;;20.61;67.33;99192.59;5097452;28;20031;-59
2021/09/07 02:46:19;;;;;;;8.82;6.30;;;;;;;20.45;66.95;99195.50;5085293;28;20035;-59
2021/09/07 02:48:44;;;;;;;8.60;6.57;;;;;;;20.19;67.00;99154.75;5101761;28;20039;-59
2021/09/07 02:51:09;;;;;;;10.63;7.72;;;;;;;20.30;67.36;99185.06;5098443;28;20028;-59
2021/09/07 02:53:35;;;;;;;10.38;7.20;;;;;;;20.26;67.47;99175.88;5100651;27;20058;-60
2021/09/07 02:56:00;;;;;;;9.52;6.57;;;;;;;20.38;67.21;99178.81;5107270;27;20106;-58
2021/09/07 02:58:26;;;;;;;8.93;6.47;;;;;;;20.34;67.34;99184.47;5097920;27;20020;-60
2021/09/07 03:00:51;;;;;;;8.23;6.15;;;;;;;20.43;66.92;99182.50;5106447;27;20020;-59
2021/09/07 03:03:17;;;;;;;11.05;6.85;;;;;;;20.40;67.13;99179.44;5105284;27;20027;-58
2021/09/07 03:05:42;;;;;;;9.10;6.53;;;;;;;20.38;67.40;99173.53;5087667;28;20102;-59
2021/09/07 03:08:08;;;;;;;10.85;7.03;;;;;;;20.31;67.81;99179.56;5097250;28;20485;-59
2021/09/07 03:10:33;;;;;;;10.75;7.60;;;;;;;20.19;67.20;99145.97;5103415;27;20489;-60
2021/09/07 03:12:59;;;;;;;10.85;7.05;;;;;;;20.33;67.06;99171.47;5103142;27;20036;-60
2021/09/07 03:15:25;;;;;;;9.82;6.90;;;;;;;20.13;67.10;99135.22;5103133;28;20019;-59
2021/09/07 03:17:50;;;;;;;10.88;7.32;;;;;;;20.44;66.52;99176.19;5107979;27;20114;-60
2021/09/07 03:20:16;;;;;;;12.82;7.10;;;;;;;20.37;67.29;99175.38;5106733;28;20035;-59
2021/09/07 03:22:41;;;;;;;9.23;6.72;;;;;;;20.37;66.65;99175.38;5085054;28;20032;-60
2021/09/07 03:25:07;;;;;;;10.98;6.88;;;;;;;20.31;66.84;99168.19;5097902;27;20024;-60
2021/09/07 03:27:33;;;;;;;10.43;6.32;;;;;;;20.42;66.60;99180.84;5087558;28;20081;-60
2021/09/07 03:29:58;;;;;;;8.52;6.40;;;;;;;20.30;66.97;99185.88;5106912;27;20446;-60
2021/09/07 03:32:23;;;;;;;9.25;6.82;;;;;;;20.30;66.94;99185.88;5088301;27;20035;-58
2021/09/07 03:34:49;;;;;;;8.68;6.72;;;;;;;20.34;66.80;99175.75;5086652;28;20519;-59
2021/09/07 03:37:14;;;;;;;9.13;6.85;;;;;;;20.34;67.39;99178.38;5100992;27;20160;-60
2021/09/07 03:39:40;;;;;;;9.48;7.30;;;;;;;20.25;68.11;99172.44;5106722;27;20501;-59
2021/09/07 03:42:05;;;;;;;9.23;7.22;;;;;;;20.26;68.25;99176.72;5089152;28;20032;-58
2021/09/07 03:44:30;;;;;;;9.52;6.75;;;;;;;20.18;69.01;99174.22;5103985;27;20032;-59
2021/09/07 03:46:56;;;;;;;11.68;7.40;;;;;;;20.10;69.28;99182.28;5104785;27;20027;-60
2021/09/07 03:49:21;;;;;;;9.80;7.03;;;;;;;20.13;69.55;99177.44;5101244;27;20494;-60
2021/09/07 03:51:46;;;;;;;10.52;7.50;;;;;;;19.90;70.03;99135.47;5107260;27;20072;-60
2021/09/07 03:54:12;;;;;;;10.02;7.70;;;;;;;19.89;69.95;99138.28;5096083;27;20035;-60
2021/09/07 03:56:37;;;;;;;12.85;7.72;;;;;;;20.06;70.36;99170.47;5106474;28;20137;-60
2021/09/07 03:59:03;;;;;;;9.43;7.30;;;;;;;20.09;70.39;99176.19;5081951;27;20029;-58
2021/09/07 04:01:29;;;;;;;10.25;7.70;;;;;;;20.06;70.51;99173.09;5104437;27;20042;-59
2021/09/07 04:03:55;;;;;;;12.18;7.65;;;;;;;19.95;70.60;99177.94;5102268;28;20048;-59
2021/09/07 04:06:21;;;;;;;9.95;7.43;;;;;;;19.95;70.57;99175.28;5103359;27;20039;-59
2021/09/07 04:08:46;;;;;;;11.63;8.05;;;;;;;19.93;70.84;99179.94;5108703;27;20369;-60
2021/09/07 04:11:12;;;;;;;10.95;7.82;;;;;;;19.92;70.22;99178.31;5086733;27;20438;-60
2021/09/07 04:13:37;;;;;;;10.73;8.00;;;;;;;19.92;69.97;99169.56;5105623;27;20046;-60
2021/09/07 04:16:02;;;;;;;11.48;8.13;;;;;;;20.01;69.78;99188.72;5104172;28;20884;-62
2021/09/07 04:18:28;;;;;;;10.30;8.05;;;;;;;19.75;70.40;99150.53;5102707;27;20040;-59
2021/09/07 04:20:53;;;;;;;11.13;8.00;;;;;;;19.97;69.95;99204.94;5107646;27;20032;-59
2021/09/07 04:23:19;;;;;;;10.43;7.60;;;;;;;19.99;69.74;99186.28;5101287;27;20122;-60
2021/09/07 04:25:44;;;;;;;9.98;8.32;;;;;;;19.93;69.88;99181.75;5086664;28;20153;-60
2021/09/07 04:28:09;;;;;;;13.55;8.13;;;;;;;19.83;69.91;99168.09;5104759;27;20538;-60
2021/09/07 04:30:35;;;;;;;11.52;8.90;;;;;;;19.71;69.80;99147.47;5104620;28;20106;-60
2021/09/07 04:33:00;;;;;;;9.57;8.07;;;;;;;19.93;69.54;99171.19;5095281;27;20036;-61
2021/09/07 04:35:26;;;;;;;11.88;8.45;;;;;;;19.97;69.65;99175.91;5098793;27;20032;-60
2021/09/07 04:37:51;;;;;;;11.98;8.23;;;;;;;19.92;69.80;99174.84;5094322;27;20024;-60
2021/09/07 04:40:17;;;;;;;10.73;8.43;;;;;;;19.82;70.25;99179.63;5093689;28;20640;-59
2021/09/07 04:42:42;;;;;;;9.85;8.10;;;;;;;19.81;70.67;99180.66;5107744;27;20039;-60
2021/09/07 04:45:08;;;;;;;11.52;8.13;;;;;;;19.82;70.80;99180.44;5104975;27;20027;-60
2021/09/07 04:47:33;;;;;;;10.63;8.07;;;;;;;19.64;70.77;99153.69;5103221;27;20058;-60
2021/09/07 04:49:59;;;;;;;13.43;8.07;;;;;;;19.74;70.63;99191.94;5085768;28;20035;-59
2021/09/07 04:52:24;;;;;;;13.13;7.97;;;;;;;19.71;70.67;99176.50;5090431;28;20032;-60
2021/09/07 04:54:50;;;;;;;11.63;7.82;;;;;;;19.83;70.67;99191.84;5085559;27;20028;-60
2021/09/07 04:57:15;;;;;;;10.32;8.07;;;;;;;19.77;70.60;99191.59;5106375;27;20035;-59
2021/09/07 04:59:41;;;;;;;10.73;8.48;;;;;;;19.69;70.69;99191.66;5096928;28;20361;-61
2021/09/07 05:02:06;;;;;;;10.20;7.97;;;;;;;19.71;70.78;99187.03;5084781;28;20027;-59
2021/09/07 05:04:32;;;;;;;10.90;8.15;;;;;;;19.48;70.81;99155.59;5084703;28;20389;-60
2021/09/07 05:06:57;;;;;;;10.20;7.80;;;;;;;19.70;70.84;99188.03;5098927;27;20348;-59
2021/09/07 05:09:23;;;;;;;14.20;7.95;;;;;;;19.52;70.89;99163.94;5106661;27;20016;-59
2021/09/07 05:11:48;;;;;;;12.05;8.02;;;;;;;19.73;71.25;99192.13;5074768;28;20051;-61
2021/09/07 05:14:14;;;;;;;11.60;8.65;;;;;;;19.79;70.78;99199.31;5089868;27;20035;-61
2021/09/07 05:16:39;;;;;;;11.15;8.35;;;;;;;19.67;71.24;99196.31;5097416;28;20202;-60
2021/09/07 05:19:04;;;;;;;12.23;8.25;;;;;;;19.50;71.74;99173.84;5100206;28;20208;-59
2021/09/07 05:21:30;;;;;;;12.00;9.05;;;;;;;19.69;71.27;99199.59;5091973;28;20128;-60
2021/09/07 05:23:56;;;;;;;10.52;8.50;;;;;;;19.62;71.39;99198.69;5088315;28;20024;-60
2021/09/07 05:26:21;;;;;;;11.43;8.20;;;;;;;19.66;71.25;99194.72;5079116;28;20549;-59
2021/09/07 05:28:46;;;;;;;11.55;8.10;;;;;;;19.62;70.70;99174.16;5086670;28;20103;-60
2021/09/07 05:31:12;;;;;;;11.27;7.88;;;;;;;19.63;70.34;99191.63;5103154;28;20032;-60
2021/09/07 05:33:37;;;;;;;11.02;8.10;;;;;;;19.70;70.23;99187.22;5096926;27;20673;-60
2021/09/07 05:36:03;;;;;;;10.10;8.43;;;;;;;19.44;70.06;99150.88;5098778;28;20038;-60
2021/09/07 05:38:28;;;;;;;10.32;8.82;;;;;;;19.62;70.62;99185.50;5081599;28;20960;-60
2021/09/07 05:40:54;;;;;;;16.88;8.80;;;;;;;19.64;70.58;99196.72;5093809;28;20024;-60
2021/09/07 05:43:19;;;;;;;11.77;8.95;;;;;;;19.61;70.83;99191.81;5096493;28;20046;-59
2021/09/07 05:45:45;;;;;;;11.63;8.32;;;;;;;19.64;70.60;99193.25;5101278;28;20691;-60
2021/09/07 05:48:10;;;;;;;11.13;8.45;;;;;;;19.61;70.51;99185.72;5101931;28;20427;-60
2021/09/07 05:50:35;;;;;;;11.20;9.07;;;;;;;19.53;70.84;99197.19;5082097;28;20031;-60
2021/09/07 05:53:01;;;;;;;11.52;8.48;;;;;;;19.53;70.68;99195.41;5099746;28;20448;-59
2021/09/07 05:55:27;;;;;;;11.88;9.35;;;;;;;19.53;70.43;99194.56;5099749;27;20036;-60
2021/09/07 05:57:54;;;;;;;11.65;9.20;;;;;;;19.55;70.18;99192.56;5098326;28;20020;-59
2021/09/07 06:00:19;;;;;;;12.27;9.00;;;;;;;19.48;70.40;99191.69;5082591;28;20082;-59
2021/09/07 06:02:45;;;;;;;16.73;8.68;;;;;;;19.32;70.06;99156.66;5098669;28;20103;-60
2021/09/07 06:05:11;;;;;;;13.68;9.05;;;;;;;19.27;70.54;99158.22;5073789;28;20449;-58
2021/09/07 06:07:37;;;;;;;13.75;9.05;;;;;;;19.46;70.87;99197.16;5085105;28;20746;-60
2021/09/07 06:10:03;;;;;;;12.13;9.05;;;;;;;19.37;70.73;99170.09;5088516;27;20664;-60
2021/09/07 06:12:29;;;;;;;10.73;8.82;;;;;;;19.47;70.52;99195.31;5100064;28;20184;-60
2021/09/07 06:14:54;;;;;;;12.02;9.07;;;;;;;19.37;71.31;99195.66;5075622;28;20359;-60
2021/09/07 06:17:19;;;;;;;12.45;9.18;;;;;;;19.46;71.01;99201.59;5078514;28;20043;-60
2021/09/07 06:19:45;;;;;;;10.60;8.40;;;;;;;19.54;70.24;99212.84;5086605;28;20042;-60
2021/09/07 06:22:10;;;;;;;11.40;8.88;;;;;;;19.53;69.81;99200.66;5079160;28;20127;-60
2021/09/07 06:24:36;;;;;;;11.15;9.15;;;;;;;19.46;69.95;99180.50;5085472;28;20028;-60
2021/09/07 06:27:01;;;;;;;11.63;8.77;;;;;;;19.60;70.06;99208.63;5089007;28;20115;-60
2021/09/07 06:29:27;;;;;;;12.80;8.70;;;;;;;19.36;70.22;99178.19;5092131;28;20462;-60
2021/09/07 06:31:52;;;;;;;11.48;8.80;;;;;;;19.51;70.69;99207.13;5099541;28;20108;-59
2021/09/07 06:34:24;;;;;;;11.32;9.00;;;;;;;19.48;70.66;99199.59;5092892;28;20039;-59
2021/09/07 06:36:49;;;;;;;11.38;9.13;;;;;;;19.56;70.56;99218.75;5067539;28;20039;-60
2021/09/07 06:39:15;;;;;;;15.90;8.63;;;;;;;19.55;70.98;99218.94;5100142;28;20422;-60
2021/09/07 06:41:40;;;;;;;11.25;8.25;;;;;;;19.39;70.19;99181.25;5094699;28;20036;-60
2021/09/07 06:44:05;;;;;;;9.93;8.25;;;;;;;19.71;70.48;99218.69;5098132;28;20039;-60
2021/09/07 06:46:31;;;;;;;12.13;8.27;;;;;;;19.81;70.37;99222.88;5097558;28;20525;-60
2021/09/07 06:48:56;;;;;;;10.35;7.85;;;;;;;19.82;69.68;99222.66;5101253;28;20023;-60
2021/09/07 06:51:21;;;;;;;11.40;8.80;;;;;;;19.79;71.16;99225.69;5102405;28;20031;-61
2021/09/07 06:53:47;;;;;;;11.27;9.25;;;;;;;19.85;71.12;99224.94;5100761;28;20163;-60
2021/09/07 06:56:12;;;;;;;13.18;9.18;;;;;;;19.86;70.90;99223.94;5097326;28;20027;-60
2021/09/07 06:58:37;;;;;;;11.25;8.75;;;;;;;19.87;71.00;99228.19;5093231;28;20130;-60
2021/09/07 07:01:03;;;;;;;12.27;9.07;;;;;;;19.93;70.92;99226.59;5102152;28;20509;-61
2021/09/07 07:03:30;;;;;;;12.55;9.57;;;;;;;19.97;71.06;99227.88;5100655;28;20043;-60
2021/09/07 07:05:56;;;;;;;11.57;9.38;;;;;;;20.00;70.90;99234.59;5095597;28;20071;-60
2021/09/07 07:08:21;;;;;;;11.55;9.40;;;;;;;19.97;71.23;99233.97;5100604;28;20483;-59
2021/09/07 07:10:46;;;;;;;12.32;9.63;;;;;;;19.92;72.86;99236.34;5099099;28;20020;-60
2021/09/07 07:13:12;;;;;;;13.10;9.98;;;;;;;19.90;73.10;99227.81;5101585;28;20016;-60
2021/09/07 07:15:37;;;;;;;12.13;9.35;;;;;;;19.85;73.62;99239.94;5096243;28;20498;-60
2021/09/07 07:18:03;;;;;;;13.35;9.20;;;;;;;19.93;73.35;99234.53;5102926;28;20031;-60
2021/09/07 07:20:28;;;;;;;11.27;9.30;;;;;;;19.94;73.33;99230.91;5101190;28;20379;-61
2021/09/07 07:22:53;;;;;;;10.38;8.70;;;;;;;19.91;72.25;99204.88;5100984;28;20109;-61
2021/09/07 07:25:19;;;;;;;12.75;9.35;;;;;;;20.12;71.81;99227.78;5090974;28;20044;-60
2021/09/07 07:27:45;;;;;;;12.35;8.93;;;;;;;20.11;71.41;99216.41;5102597;28;20036;-60
2021/09/07 07:30:11;;;;;;;10.90;9.13;;;;;;;19.93;71.16;99221.34;5100053;28;20351;-60
2021/09/07 07:32:36;;;;;;;13.32;8.98;;;;;;;19.97;72.08;99228.69;5095663;28;20118;-59
2021/09/07 07:35:03;;;;;;;12.52;9.02;;;;;;;20.07;71.12;99231.00;5079248;28;20948;-59
2021/09/07 07:37:29;;;;;;;12.93;8.73;;;;;;;20.02;70.62;99230.75;5098067;28;20027;-60
2021/09/07 07:39:54;;;;;;;13.15;9.00;;;;;;;20.02;70.75;99214.91;5104715;28;20388;-62
2021/09/07 07:42:19;;;;;;;11.30;8.68;;;;;;;19.98;71.22;99222.38;5103301;28;20035;-60
2021/09/07 07:44:47;;;;;;;12.07;9.13;;;;;;;19.90;71.43;99200.63;5087596;28;20141;-60
2021/09/07 07:47:12;;;;;;;11.10;8.25;;;;;;;20.07;71.80;99223.06;5079276;28;20024;-60
2021/09/07 07:49:38;;;;;;;11.30;9.10;;;;;;;20.07;71.61;99217.78;5099268;28;20058;-60
2021/09/07 07:52:04;;;;;;;11.68;8.63;;;;;;;20.00;71.02;99222.19;5101308;28;20099;-60
2021/09/07 07:54:29;;;;;;;11.13;8.85;;;;;;;20.07;71.12;99230.19;5095986;27;20035;-60
2021/09/07 07:56:54;;;;;;;13.02;8.95;;;;;;;19.89;71.19;99201.63;5088952;28;20042;-60
2021/09/07 07:59:20;;;;;;;11.25;8.32;;;;;;;20.05;70.17;99238.28;5092757;28;20039;-61
2021/09/07 08:01:45;;;;;;;10.38;8.52;;;;;;;20.06;70.13;99231.19;5088972;28;20031;-60
2021/09/07 08:04:10;;;;;;;11.63;9.00;;;;;;;19.98;69.75;99197.84;5096827;28;20550;-60
2021/09/07 08:06:37;;;;;;;12.70;9.40;;;;;;;20.14;69.92;99234.50;5105449;27;20115;-61
2021/09/07 08:09:03;;;;;;;11.65;8.20;;;;;;;20.11;69.72;99228.78;5082108;27;20020;-60
2021/09/07 08:55:05;;;;;;;10.80;8.65;;;;;;;21.25;68.18;99249.59;5113789;27;20186;-60
2021/09/07 08:57:31;;;;;;;10.23;8.20;;;;;;;21.28;67.24;99243.06;5036012;28;1414732;-60
2021/09/07 08:59:58;;;;;;;12.00;8.48;;;;;;;21.30;66.63;99238.38;5110223;27;20035;-60
2021/09/07 09:02:25;;;;;;;13.32;8.82;;;;;;;21.39;66.27;99237.19;5117037;28;20107;-60
2021/09/07 09:04:51;;;;;;;10.75;8.40;;;;;;;21.31;66.47;99235.56;5116515;28;20054;-60
2021/09/07 09:07:18;;;;;;;11.23;8.18;;;;;;;21.39;66.48;99231.91;5123995;28;20090;-60
2021/09/07 09:09:45;;;;;;;11.65;8.57;;;;;;;21.47;66.66;99231.75;5098433;28;20040;-59
2021/09/07 09:12:10;;;;;;;11.55;8.88;;;;;;;21.62;66.38;99236.06;5119926;28;20055;-60
2021/09/07 09:14:38;;;;;;;11.65;8.25;;;;;;;21.72;65.90;99238.31;5110332;28;20111;-60
2021/09/07 09:17:28;;;;;;;10.68;8.25;;;;;;;21.85;66.14;99236.50;5094604;28;20494;-60
2021/09/07 09:20:17;;;;;;;11.27;8.30;;;;;;;21.81;66.02;99232.63;5122127;28;20035;-59
2021/09/07 09:22:52;;;;;;;12.82;8.65;;;;;;;21.78;65.96;99229.59;5117501;27;20027;-60
2021/09/07 09:25:23;;;;;;;12.45;8.35;;;;;;;21.67;65.54;99209.81;5111197;28;20039;-60
2021/09/07 09:27:56;;;;;;;13.60;8.88;;;;;;;21.71;65.58;99226.91;5118089;28;20119;-60
2021/09/07 09:30:51;;;;;;;9.98;8.15;;;;;;;21.77;65.98;99223.44;5095817;27;20052;-60
2021/09/07 09:33:19;;;;;;;11.93;7.85;;;;;;;21.78;65.73;99225.09;5118808;28;20031;-60
2021/09/07 09:35:50;;;;;;;8.98;7.88;;;;;;;21.80;65.09;99224.91;5114333;28;20028;-60
2021/09/07 09:38:16;;;;;;;12.52;8.57;;;;;;;21.83;64.89;99216.53;5105229;28;20108;-60
2021/09/07 09:40:42;;;;;;;10.90;8.50;;;;;;;21.77;64.54;99191.69;5115203;28;20462;-59
2021/09/07 09:43:32;;;;;;;11.13;8.63;;;;;;;22.00;64.04;99212.47;5114903;28;20107;-59
2021/09/07 09:45:57;;;;;;;11.18;8.45;;;;;;;21.97;63.60;99212.88;5099235;28;20034;-60
2021/09/07 09:48:29;;;;;;;9.20;7.43;;;;;;;22.06;63.25;99206.34;5114027;28;20031;-60
2021/09/07 09:50:59;;;;;;;11.30;8.27;;;;;;;22.20;60.35;99195.75;5110502;28;20062;-60
2021/09/07 09:53:26;;;;;;;11.10;7.53;;;;;;;22.38;61.99;99181.88;5099087;27;20035;-60
2021/09/07 09:55:53;;;;;;;8.40;6.72;;;;;;;22.59;59.99;99189.56;5084557;28;20114;-60
2021/09/07 09:58:21;;;;;;;10.63;7.00;;;;;;;22.93;57.22;99189.47;5103126;28;20139;-60
2021/09/07 10:00:51;;;;;;;8.90;6.43;;;;;;;23.07;54.02;99184.94;5092390;28;20655;-60
2021/09/07 10:03:17;;;;;;;10.02;7.32;;;;;;;23.03;58.41;99187.16;5094210;28;20508;-60
2021/09/07 10:05:44;;;;;;;10.15;7.35;;;;;;;22.95;56.03;99172.31;5102801;28;20036;-60
2021/09/07 10:08:11;;;;;;;11.05;8.32;;;;;;;22.89;55.83;99165.22;5089544;28;20024;-61
2021/09/07 10:10:54;;;;;;;11.70;7.80;;;;;;;22.92;57.91;99167.41;5061835;28;20028;-61
2021/09/07 10:13:19;;;;;;;10.57;7.65;;;;;;;23.08;60.02;99171.47;5071527;28;20119;-61
2021/09/07 10:18:54;;;;;;;13.10;8.03;;;;;;;23.06;60.50;99162.09;5050833;28;20039;-62
2021/09/07 10:26:44;;;;;;;10.82;8.13;;;;;;;23.06;58.76;99157.59;5075378;28;20027;-61
2021/09/07 10:29:10;;;;;;;9.73;7.18;;;;;;;23.15;58.68;99143.06;5091276;28;20321;-61
2021/09/07 10:31:40;;;;;;;10.02;7.30;;;;;;;23.26;57.54;99148.72;5096842;28;20488;-61
2021/09/07 10:34:06;;;;;;;11.48;7.30;;;;;;;23.39;56.02;99143.31;5080362;28;20023;-61
2021/09/07 10:36:36;;;;;;;12.57;7.65;;;;;;;23.54;54.35;99135.03;5094347;28;20031;-61
2021/09/07 10:39:04;;;;;;;8.60;6.85;;;;;;;23.73;53.60;99141.19;5089352;28;20042;-61
2021/09/07 10:41:29;;;;;;;12.93;6.82;;;;;;;23.74;52.31;99134.88;5095986;28;20023;-61
2021/09/07 10:44:04;;;;;;;10.23;6.60;;;;;;;23.75;50.94;99128.53;5082297;28;20612;-61
2021/09/07 10:46:40;;;;;;;9.27;6.32;;;;;;;23.65;50.86;99122.91;5094013;28;20480;-62
2021/09/07 10:49:43;;;;;;;8.82;6.20;;;;;;;23.65;50.56;99115.75;5090842;28;20051;-62
2021/09/07 10:52:18;;;;;;;8.85;5.75;;;;;;;23.84;50.78;99124.63;5089244;28;20096;-61
2021/09/07 10:54:52;;;;;;;9.63;6.05;;;;;;;23.89;50.48;99118.63;5083062;28;20469;-61
2021/09/07 10:57:37;;;;;;;8.63;5.68;;;;;;;24.09;46.05;99102.50;5077563;28;20066;-61
2021/09/07 11:00:21;;;;;;;10.05;5.47;;;;;;;24.15;46.50;99083.03;5072398;28;20498;-61
2021/09/07 11:02:51;;;;;;;9.27;5.45;;;;;;;24.43;44.00;99106.41;5099712;28;20437;-61
2021/09/07 11:05:25;;;;;;;9.25;5.47;;;;;;;24.23;44.30;99069.44;5094277;28;20023;-60
2021/09/07 11:08:17;;;;;;;8.45;5.57;;;;;;;24.49;41.50;99088.75;5082450;28;20509;-61
2021/09/07 11:10:44;;;;;;;10.23;5.15;;;;;;;24.51;43.43;99092.78;5092521;28;20042;-61
2021/09/07 11:13:12;;;;;;;9.73;5.32;;;;;;;24.46;44.25;99092.69;5082488;28;20027;-61
2021/09/07 11:15:40;;;;;;;8.07;5.18;;;;;;;24.49;43.41;99083.44;5086011;28;20024;-61
2021/09/07 11:18:06;;;;;;;8.85;5.70;;;;;;;24.60;41.72;99089.88;5086086;28;20019;-61
2021/09/07 11:20:35;;;;;;;8.20;5.35;;;;;;;24.73;42.38;99089.69;5090666;28;20313;-61
2021/09/07 11:23:10;;;;;;;8.98;5.13;;;;;;;24.65;42.20;99063.44;5097710;28;20030;-62
2021/09/07 11:25:36;;;;;;;9.25;4.90;;;;;;;24.77;42.86;99087.41;5064652;28;20032;-62
2021/09/07 11:28:05;;;;;;;13.10;5.05;;;;;;;24.90;41.64;99082.72;5074854;28;20081;-61
2021/09/07 11:30:41;;;;;;;9.77;5.25;;;;;;;25.07;41.10;99082.88;5071386;28;20031;-61
2021/09/07 11:33:13;;;;;;;8.77;5.32;;;;;;;24.89;40.48;99043.03;5094302;28;20031;-61
2021/09/07 11:35:53;;;;;;;12.88;5.72;;;;;;;24.91;41.55;99067.56;5099680;28;20760;-61
2021/09/07 11:38:22;;;;;;;8.52;5.55;;;;;;;24.95;42.07;99063.41;5078892;28;20778;-61
2021/09/07 11:41:01;;;;;;;8.10;5.78;;;;;;;24.92;41.89;99075.31;5093134;28;20035;-61
2021/09/07 11:43:32;;;;;;;8.25;5.97;;;;;;;24.95;40.77;99071.38;5076277;28;20035;-61
2021/09/07 11:46:18;;;;;;;8.05;5.72;;;;;;;24.94;41.60;99065.25;5054773;28;20031;-61
2021/09/07 11:48:47;;;;;;;9.07;5.38;;;;;;;24.96;41.09;99062.38;5101548;28;20016;-61
2021/09/07 11:51:27;;;;;;;9.18;5.80;;;;;;;24.94;41.31;99065.25;5087115;28;20040;-61
2021/09/07 11:53:56;;;;;;;9.73;5.72;;;;;;;25.02;41.91;99064.09;5062834;28;20386;-61
2021/09/07 11:56:23;;;;;;;9.68;5.30;;;;;;;25.08;40.99;99059.72;5095301;28;20023;-61
2021/09/07 11:58:49;;;;;;;9.45;5.40;;;;;;;24.97;39.96;99024.09;5099705;28;20015;-61
2021/09/07 12:01:18;;;;;;;10.30;6.05;;;;;;;25.24;40.83;99063.59;5098611;28;20475;-61
2021/09/07 12:03:44;;;;;;;9.35;6.28;;;;;;;25.06;40.34;99052.00;5072775;28;20019;-61
2021/09/07 12:06:12;;;;;;;8.68;5.75;;;;;;;25.09;40.87;99046.19;5090308;28;20031;-61
2021/09/07 12:08:49;;;;;;;8.38;5.63;;;;;;;25.08;41.21;99046.41;5099933;28;20066;-61
2021/09/07 12:11:30;;;;;;;9.27;5.72;;;;;;;25.01;40.87;99013.78;5079087;28;20036;-59
2021/09/07 12:14:12;;;;;;;10.07;5.78;;;;;;;25.45;40.15;99035.63;5097202;28;20690;-60
2021/09/07 12:16:48;;;;;;;10.00;5.85;;;;;;;25.52;40.32;99029.16;5080444;28;20023;-61
2021/09/07 12:19:29;;;;;;;8.23;5.72;;;;;;;25.43;40.49;99008.44;5096854;28;20028;-61
2021/09/07 12:22:10;;;;;;;9.73;5.53;;;;;;;25.45;40.49;99025.78;5089634;28;20043;-61